Time;durP1;ratioP1;P1;durP2;ratioP2;P2;SDS_P1;SDS_P2;PMS_P1;PMS_P2;Temp;Humidity;BMP_temperature;BMP_pressure;BME280_temperature;BME280_humidity;BME280_pressure;Samples;Min_cycle;Max_cycle;Signal;HPM_P1;HPM_P2
2023/03/02 00:02:11;;;;;;;12.37;8.00;;;;;;;-0.94;83.41;102294.94;4982619;28;21758;-89
2023/03/02 00:04:45;;;;;;;11.30;8.30;;;;;;;-0.98;83.37;102290.78;4967983;28;20300;-89
2023/03/02 00:07:15;;;;;;;11.52;8.32;;;;;;;-0.99;83.33;102294.38;4985327;28;20297;-89
2023/03/02 00:09:42;;;;;;;10.40;7.87;;;;;;;-0.98;83.22;102289.91;4985101;28;20037;-89
2023/03/02 00:12:08;;;;;;;11.50;7.90;;;;;;;-0.95;83.22;102293.22;4988615;28;20297;-89
2023/03/02 00:14:33;;;;;;;11.73;8.07;;;;;;;-1.06;83.24;102293.94;4988671;28;20289;-89
2023/03/02 00:16:58;;;;;;;10.70;8.07;;;;;;;-1.06;83.30;102290.38;4980674;28;20378;-89
2023/03/02 00:19:24;;;;;;;12.50;8.20;;;;;;;-1.00;83.66;102281.19;4982393;28;20495;-89
2023/03/02 00:21:49;;;;;;;11.70;8.03;;;;;;;-1.05;83.38;102282.34;4987792;28;20042;-89
2023/03/02 00:24:15;;;;;;;11.07;8.20;;;;;;;-1.06;83.40;102282.41;4979430;28;20038;-89
2023/03/02 00:26:40;;;;;;;12.13;8.53;;;;;;;-1.06;83.48;102287.72;4967658;28;20100;-89
2023/03/02 00:29:06;;;;;;;12.83;8.70;;;;;;;-1.21;83.63;102285.13;4983324;28;20023;-89
2023/03/02 00:31:31;;;;;;;12.17;8.00;;;;;;;-1.20;83.80;102280.66;4975353;28;20050;-88
2023/03/02 00:33:57;;;;;;;13.50;8.50;;;;;;;-1.16;83.95;102283.97;4982699;28;20035;-89
2023/03/02 00:36:22;;;;;;;12.97;8.53;;;;;;;-1.25;84.43;102283.63;4986239;28;20942;-89
2023/03/02 00:38:48;;;;;;;12.03;8.60;;;;;;;-1.31;84.58;102278.69;4984817;28;20042;-81
2023/03/02 00:41:15;;;;;;;11.00;8.17;;;;;;;-1.27;85.02;102279.34;4964528;28;20129;-81
2023/03/02 00:43:41;;;;;;;11.37;8.50;;;;;;;-1.24;84.81;102287.13;4978649;28;20127;-80
2023/03/02 00:46:11;;;;;;;12.03;8.40;;;;;;;-1.23;84.71;102280.88;4981465;28;20314;-80
2023/03/02 00:48:37;;;;;;;14.00;9.27;;;;;;;-1.26;84.95;102276.59;4980476;28;20819;-81
2023/03/02 00:51:04;;;;;;;12.60;8.80;;;;;;;-1.32;85.59;102274.34;4967773;28;20376;-81
2023/03/02 00:53:29;;;;;;;12.43;8.90;;;;;;;-1.25;86.13;102267.66;4980186;28;20035;-81
2023/03/02 00:55:54;;;;;;;13.83;9.00;;;;;;;-1.25;85.89;102270.31;4950256;28;20352;-80
2023/03/02 00:58:20;;;;;;;15.23;9.77;;;;;;;-1.29;86.10;102274.13;4980597;28;20149;-81
2023/03/02 01:00:46;;;;;;;12.80;9.30;;;;;;;-1.27;86.36;102272.22;4968602;28;20038;-88
2023/03/02 01:03:11;;;;;;;13.27;9.33;;;;;;;-1.31;86.13;102270.72;4981373;28;20035;-89
2023/03/02 01:05:37;;;;;;;12.67;9.37;;;;;;;-1.29;86.27;102276.78;4983191;28;20487;-88
2023/03/02 01:08:02;;;;;;;13.67;9.67;;;;;;;-1.37;86.35;102274.63;4983418;28;20042;-89
2023/03/02 01:10:30;;;;;;;13.23;9.53;;;;;;;-1.39;86.70;102281.00;4981325;28;20081;-89
2023/03/02 01:12:56;;;;;;;12.53;9.13;;;;;;;-1.41;86.73;102281.09;4982883;28;20725;-81
2023/03/02 01:15:21;;;;;;;13.00;9.27;;;;;;;-1.51;87.80;102277.28;4953398;28;20297;-81
2023/03/02 01:17:47;;;;;;;13.93;9.50;;;;;;;-1.57;87.78;102278.53;4983638;28;20130;-81
2023/03/02 01:20:13;;;;;;;13.87;9.27;;;;;;;-1.58;87.90;102282.19;4981492;28;20038;-81
2023/03/02 01:22:38;;;;;;;14.47;9.53;;;;;;;-1.70;88.31;102275.81;4981711;28;20042;-81
2023/03/02 01:25:04;;;;;;;12.90;9.70;;;;;;;-1.79;89.40;102276.38;4982236;28;20293;-81
2023/03/02 01:27:30;;;;;;;14.07;9.80;;;;;;;-1.80;89.84;102279.16;4962183;28;20043;-80
2023/03/02 01:29:55;;;;;;;14.10;9.93;;;;;;;-1.73;90.19;102267.19;4982661;28;20845;-81
2023/03/02 01:32:20;;;;;;;14.33;9.97;;;;;;;-1.73;90.36;102268.06;4949368;28;20042;-89
2023/03/02 01:34:46;;;;;;;13.60;9.10;;;;;;;-1.74;90.59;102270.78;4981431;28;20034;-89
2023/03/02 01:37:11;;;;;;;14.77;9.57;;;;;;;-1.69;90.58;102260.72;4981910;28;20042;-88
2023/03/02 01:39:36;;;;;;;11.87;9.67;;;;;;;-1.70;90.64;102269.63;4981564;28;20046;-88
2023/03/02 01:42:02;;;;;;;13.40;9.67;;;;;;;-1.77;90.57;102260.34;4983372;28;20540;-88
2023/03/02 01:44:49;;;;;;;15.30;10.00;;;;;;;-1.71;91.07;102262.63;4979487;28;20427;-89
2023/03/02 01:47:37;;;;;;;14.53;10.33;;;;;;;-1.79;91.31;102259.59;4982257;28;20092;-89
2023/03/02 01:50:19;;;;;;;16.27;10.77;;;;;;;-1.81;91.87;102254.38;4976937;28;20375;-89
2023/03/02 01:52:45;;;;;;;14.40;10.73;;;;;;;-1.81;92.08;102253.50;4976907;28;20285;-88
2023/03/02 01:55:15;;;;;;;16.80;11.13;;;;;;;-1.78;92.87;102248.88;4976908;28;20831;-88
2023/03/02 01:57:45;;;;;;;16.03;11.30;;;;;;;-1.80;93.18;102249.91;4985305;28;22169;-87
2023/03/02 02:00:19;;;;;;;17.17;11.50;;;;;;;-1.84;93.44;102237.78;4965008;28;20301;-80
2023/03/02 02:02:45;;;;;;;14.05;6.28;;;;;;;-1.76;93.76;102244.31;4982737;28;20297;-81
2023/03/02 02:05:15;;;;;;;18.13;12.30;;;;;;;-1.72;94.35;102237.84;4979474;28;20092;-81
2023/03/02 02:07:40;;;;;;;18.70;12.73;;;;;;;-1.78;94.82;102242.69;4981847;28;20038;-81
2023/03/02 02:10:07;;;;;;;17.90;13.07;;;;;;;-1.82;95.66;102238.53;4980540;28;20328;-81
2023/03/02 02:12:33;;;;;;;20.10;13.77;;;;;;;-1.79;96.43;102243.66;4962407;28;20050;-80
2023/03/02 02:14:59;;;;;;;20.67;15.23;;;;;;;-1.78;97.01;102240.03;4950050;28;20301;-81
2023/03/02 02:17:26;;;;;;;21.00;15.73;;;;;;;-1.84;97.70;102245.75;4982705;28;20294;-81
2023/03/02 02:20:09;;;;;;;23.83;17.70;;;;;;;-1.83;99.32;102239.50;4982704;28;20309;-81
2023/03/02 02:23:12;;;;;;;23.23;16.87;;;;;;;-1.84;99.91;102237.78;4980300;28;20293;-81
2023/03/02 02:25:44;;;;;;;25.13;19.47;;;;;;;-1.84;100.00;102232.47;4982196;28;20625;-81
2023/03/02 02:28:17;;;;;;;27.47;20.90;;;;;;;-1.82;100.00;102239.38;4966062;28;20739;-80
2023/03/02 02:30:44;;;;;;;28.67;22.00;;;;;;;-1.86;100.00;102240.53;4979692;28;20387;-81
2023/03/02 02:33:16;;;;;;;28.83;22.97;;;;;;;-1.85;100.00;102236.06;4981675;28;20721;-81
2023/03/02 02:35:45;;;;;;;32.03;26.17;;;;;;;-1.88;100.00;102235.31;4981798;28;20320;-89
2023/03/02 02:38:13;;;;;;;31.47;25.50;;;;;;;-1.80;100.00;102231.31;4985354;28;20292;-89
2023/03/02 02:40:48;;;;;;;33.47;27.10;;;;;;;-1.87;100.00;102223.72;4980597;28;20302;-89
2023/03/02 02:43:16;;;;;;;36.93;29.43;;;;;;;-1.79;100.00;102230.38;4983853;28;20332;-89
2023/03/02 02:45:42;;;;;;;37.63;30.83;;;;;;;-1.76;100.00;102220.38;4981208;28;22078;-89
2023/03/02 02:48:14;;;;;;;38.70;32.23;;;;;;;-1.80;100.00;102220.69;4965519;28;20310;-89
2023/03/02 02:50:40;;;;;;;41.30;33.30;;;;;;;-1.75;100.00;102216.78;4982672;28;20105;-89
2023/03/02 02:53:13;;;;;;;41.27;34.17;;;;;;;-1.72;100.00;102215.75;4977235;28;20300;-89
2023/03/02 02:55:41;;;;;;;42.50;35.60;;;;;;;-1.76;100.00;102208.91;4983562;28;20607;-89
2023/03/02 02:58:21;;;;;;;44.47;35.73;;;;;;;-1.70;100.00;102211.16;4980786;28;20371;-88
2023/03/02 03:00:46;;;;;;;44.77;37.70;;;;;;;-1.73;100.00;102204.28;4971723;28;20317;-89
2023/03/02 03:03:29;;;;;;;45.50;36.97;;;;;;;-1.70;100.00;102206.72;4954504;28;20393;-89
2023/03/02 03:06:00;;;;;;;45.83;38.13;;;;;;;-1.71;100.00;102207.66;4984545;28;20035;-89
2023/03/02 03:08:59;;;;;;;48.60;39.90;;;;;;;-1.65;100.00;102208.22;4982811;28;20301;-89
2023/03/02 03:11:28;;;;;;;49.00;40.00;;;;;;;-1.59;100.00;102208.69;4941078;28;20360;-81
2023/03/02 03:13:59;;;;;;;49.17;39.23;;;;;;;-1.59;100.00;102211.34;4980621;28;21338;-81
2023/03/02 03:16:28;;;;;;;47.57;39.20;;;;;;;-1.58;100.00;102213.06;4981724;28;22213;-81
2023/03/02 03:18:55;;;;;;;50.93;41.67;;;;;;;-1.57;100.00;102209.44;4978983;28;20297;-89
2023/03/02 03:21:20;;;;;;;51.93;41.07;;;;;;;-1.57;100.00;102211.25;4958455;28;20302;-89
2023/03/02 03:23:46;;;;;;;49.63;40.60;;;;;;;-1.57;100.00;102206.78;4979478;28;20304;-89
2023/03/02 03:26:11;;;;;;;49.70;39.80;;;;;;;-1.54;100.00;102208.38;4982021;28;20042;-88
2023/03/02 03:28:36;;;;;;;51.57;41.37;;;;;;;-1.55;100.00;102202.22;4978722;28;20100;-89
2023/03/02 03:31:02;;;;;;;48.37;40.50;;;;;;;-1.54;100.00;102206.59;4967310;28;20042;-89
2023/03/02 03:33:27;;;;;;;51.53;40.70;;;;;;;-1.51;100.00;102205.53;4962731;28;20129;-89
2023/03/02 03:35:53;;;;;;;51.77;41.00;;;;;;;-1.55;100.00;102207.53;4963825;28;20556;-89
2023/03/02 03:38:18;;;;;;;52.80;41.80;;;;;;;-1.56;100.00;102203.16;4945903;28;20057;-89
2023/03/02 03:40:43;;;;;;;50.87;41.03;;;;;;;-1.52;100.00;102206.50;4983738;28;20038;-89
2023/03/02 03:43:10;;;;;;;52.17;41.67;;;;;;;-1.53;100.00;102205.63;4986015;28;20160;-89
2023/03/02 03:45:36;;;;;;;52.87;41.23;;;;;;;-1.57;100.00;102206.78;4979917;28;20038;-88
2023/03/02 03:48:01;;;;;;;50.47;40.33;;;;;;;-1.57;100.00;102204.13;4950537;28;20313;-89
2023/03/02 03:50:27;;;;;;;50.33;40.97;;;;;;;-1.54;100.00;102203.06;4962497;28;20043;-89
2023/03/02 03:52:52;;;;;;;48.93;39.30;;;;;;;-1.64;100.00;102208.13;4981086;28;20042;-89
2023/03/02 03:55:18;;;;;;;50.73;40.27;;;;;;;-1.63;100.00;102204.53;4983026;28;20047;-89
2023/03/02 03:57:44;;;;;;;50.33;40.40;;;;;;;-1.60;100.00;102209.63;4964267;28;20134;-89
2023/03/02 04:00:13;;;;;;;51.73;40.93;;;;;;;-1.62;100.00;102198.28;4985676;28;20364;-89
2023/03/02 04:02:39;;;;;;;48.43;39.30;;;;;;;-1.60;100.00;102208.81;4981511;28;20042;-88
2023/03/02 04:05:05;;;;;;;50.67;40.57;;;;;;;-1.67;100.00;102218.97;4981717;28;20844;-88
2023/03/02 04:07:32;;;;;;;49.57;39.53;;;;;;;-1.67;100.00;102213.66;4980049;28;20392;-88
2023/03/02 04:10:02;;;;;;;48.10;37.97;;;;;;;-1.69;100.00;102204.91;4964954;28;20830;-88
2023/03/02 04:12:33;;;;;;;48.00;38.67;;;;;;;-1.72;100.00;102210.44;4982417;28;20815;-89
2023/03/02 04:14:59;;;;;;;48.20;39.03;;;;;;;-1.67;100.00;102208.34;4983710;28;20320;-88
2023/03/02 04:17:24;;;;;;;48.70;39.13;;;;;;;-1.73;100.00;102209.59;4981687;28;20673;-88
2023/03/02 04:19:49;;;;;;;47.67;38.07;;;;;;;-1.70;100.00;102208.50;4983396;28;20051;-89
2023/03/02 04:22:15;;;;;;;46.63;37.77;;;;;;;-1.78;100.00;102211.69;4984724;28;20043;-89
2023/03/02 04:24:41;;;;;;;46.47;37.23;;;;;;;-1.82;100.00;102219.91;4987259;28;21707;-88
2023/03/02 04:27:07;;;;;;;46.47;37.80;;;;;;;-1.89;100.00;102216.78;4984044;28;20034;-89
2023/03/02 04:29:33;;;;;;;45.80;36.23;;;;;;;-1.84;100.00;102216.53;4985667;28;20290;-88
2023/03/02 04:31:59;;;;;;;48.00;36.87;;;;;;;-1.89;100.00;102216.78;4982248;28;20490;-89
2023/03/02 04:34:25;;;;;;;48.80;37.43;;;;;;;-1.90;100.00;102223.91;4981178;28;20072;-88
2023/03/02 04:36:51;;;;;;;44.47;36.53;;;;;;;-1.94;100.00;102221.56;4984126;28;20034;-89
2023/03/02 04:39:17;;;;;;;48.33;38.07;;;;;;;-1.93;100.00;102218.81;4970591;28;22016;-89
2023/03/02 04:41:44;;;;;;;47.10;36.63;;;;;;;-2.02;100.00;102216.72;4969801;28;20134;-89
2023/03/02 04:44:10;;;;;;;46.90;37.60;;;;;;;-2.00;100.00;102221.94;4966801;28;20297;-88
2023/03/02 04:46:36;;;;;;;47.80;36.77;;;;;;;-1.98;100.00;102210.28;4986504;28;20324;-89
2023/03/02 04:49:03;;;;;;;47.77;36.10;;;;;;;-2.02;100.00;102211.41;4971444;28;20298;-89
2023/03/02 04:51:40;;;;;;;47.53;37.10;;;;;;;-2.02;100.00;102202.59;4984850;28;20041;-89
2023/03/02 04:54:12;;;;;;;47.23;37.70;;;;;;;-2.10;100.00;102205.72;4987519;28;20384;-89
2023/03/02 04:56:37;;;;;;;49.37;37.37;;;;;;;-2.08;100.00;102201.16;4975647;28;20808;-89
2023/03/02 04:59:02;;;;;;;48.40;37.43;;;;;;;-2.04;100.00;102205.31;4962971;28;20301;-88
2023/03/02 05:01:28;;;;;;;51.00;37.70;;;;;;;-2.11;100.00;102209.31;4984375;28;20088;-88
2023/03/02 05:03:54;;;;;;;50.67;38.47;;;;;;;-2.11;100.00;102204.88;4987698;28;20049;-89
2023/03/02 05:06:20;;;;;;;50.27;38.43;;;;;;;-2.08;100.00;102204.69;4982210;28;20112;-89
2023/03/02 05:08:46;;;;;;;49.83;39.30;;;;;;;-2.08;100.00;102209.13;4982733;28;20149;-80
2023/03/02 05:11:24;;;;;;;54.83;40.47;;;;;;;-2.16;100.00;102211.41;4962853;28;20312;-80
2023/03/02 05:13:51;;;;;;;51.70;39.40;;;;;;;-2.15;100.00;102207.81;4982834;28;20328;-81
2023/03/02 05:16:17;;;;;;;52.90;39.87;;;;;;;-2.13;100.00;102200.63;4980425;28;20733;-80
2023/03/02 05:18:43;;;;;;;52.07;39.50;;;;;;;-2.10;100.00;102205.72;4962725;28;20334;-81
2023/03/02 05:21:08;;;;;;;58.20;40.97;;;;;;;-2.12;100.00;102203.16;4945843;28;20050;-81
2023/03/02 05:23:34;;;;;;;54.23;40.90;;;;;;;-2.15;100.00;102202.50;4962623;28;20042;-80
2023/03/02 05:25:59;;;;;;;54.20;40.03;;;;;;;-2.12;100.00;102207.59;4963605;28;20141;-80
2023/03/02 05:28:26;;;;;;;55.90;42.77;;;;;;;-2.13;100.00;102204.09;4946778;28;20054;-81
2023/03/02 05:30:52;;;;;;;56.50;41.00;;;;;;;-2.16;100.00;102209.63;4960527;28;20097;-81
2023/03/02 05:33:18;;;;;;;60.57;43.47;;;;;;;-2.13;100.00;102205.94;4978789;28;20289;-80
2023/03/02 05:35:44;;;;;;;59.50;41.97;;;;;;;-2.16;100.00;102209.63;4979697;28;20321;-80
2023/03/02 05:38:10;;;;;;;60.43;42.53;;;;;;;-2.16;100.00;102200.78;4978556;28;20301;-81
2023/03/02 05:40:35;;;;;;;61.17;42.93;;;;;;;-2.21;100.00;102214.34;4964429;28;20050;-80
2023/03/02 05:43:01;;;;;;;57.10;42.00;;;;;;;-2.24;100.00;102201.28;4978378;28;20777;-80
2023/03/02 05:45:30;;;;;;;58.77;41.23;;;;;;;-2.25;100.00;102205.72;4962042;28;20050;-80
2023/03/02 05:47:55;;;;;;;62.57;43.60;;;;;;;-2.17;100.00;102201.75;4977583;28;20432;-81
2023/03/02 05:50:21;;;;;;;63.50;44.03;;;;;;;-2.15;100.00;102203.34;4978376;28;20347;-80
2023/03/02 05:52:47;;;;;;;60.17;42.87;;;;;;;-2.18;100.00;102206.19;4959446;28;20120;-80
2023/03/02 05:55:13;;;;;;;61.27;44.87;;;;;;;-2.18;100.00;102210.66;4978581;28;20039;-80
2023/03/02 05:57:40;;;;;;;40.20;17.33;;;;;;;-2.15;100.00;102202.50;4977211;28;20045;-80
2023/03/02 06:00:07;;;;;;;58.70;42.90;;;;;;;-2.18;100.00;102202.69;4975479;28;20674;-80
2023/03/02 06:02:32;;;;;;;62.87;42.57;;;;;;;-2.26;100.00;102201.38;4959877;28;20294;-80
2023/03/02 06:04:57;;;;;;;62.40;43.80;;;;;;;-2.20;100.00;102200.13;4978878;28;20345;-81
2023/03/02 06:07:23;;;;;;;63.40;43.23;;;;;;;-2.24;100.00;102202.13;4960208;28;20053;-81
2023/03/02 06:09:49;;;;;;;61.97;43.17;;;;;;;-2.21;100.00;102206.38;4979299;28;20030;-80
2023/03/02 06:12:16;;;;;;;63.80;43.53;;;;;;;-2.23;100.00;102203.84;4978842;28;20293;-80
2023/03/02 06:14:42;;;;;;;64.47;43.97;;;;;;;-2.24;100.00;102198.63;4957669;28;20297;-80
2023/03/02 06:17:07;;;;;;;65.53;43.40;;;;;;;-2.28;100.00;102203.25;4976572;28;20677;-80
2023/03/02 06:19:33;;;;;;;61.53;43.33;;;;;;;-2.30;100.00;102204.28;4960728;28;20073;-81
2023/03/02 06:21:58;;;;;;;60.03;41.67;;;;;;;-2.32;100.00;102201.75;4977406;28;20030;-80
2023/03/02 06:24:24;;;;;;;63.23;43.90;;;;;;;-2.33;100.00;102213.28;4931373;28;20038;-80
2023/03/02 06:26:52;;;;;;;62.03;42.73;;;;;;;-2.34;100.00;102208.94;4977468;28;20042;-80
2023/03/02 06:29:17;;;;;;;65.57;44.47;;;;;;;-2.31;100.00;102205.22;4976553;28;20401;-80
2023/03/02 06:31:42;;;;;;;62.13;44.23;;;;;;;-2.30;100.00;102207.81;4957335;28;20293;-79
2023/03/02 06:34:08;;;;;;;60.63;42.10;;;;;;;-2.28;100.00;102210.38;4974920;28;20070;-81
2023/03/02 06:36:33;;;;;;;60.73;42.50;;;;;;;-2.32;100.00;102207.06;4961069;28;20047;-80
2023/03/02 06:38:58;;;;;;;63.00;42.43;;;;;;;-2.28;100.00;102213.03;4925534;28;20053;-80
2023/03/02 06:41:24;;;;;;;62.27;42.13;;;;;;;-2.28;100.00;102221.84;4963858;28;20045;-81
2023/03/02 06:43:50;;;;;;;59.07;42.40;;;;;;;-2.28;100.00;102221.84;4981212;28;20042;-80
2023/03/02 06:46:18;;;;;;;61.93;42.80;;;;;;;-2.26;100.00;102216.44;4957669;28;20073;-80
2023/03/02 06:48:43;;;;;;;61.00;42.20;;;;;;;-2.24;100.00;102226.00;4962158;28;20064;-81
2023/03/02 06:51:09;;;;;;;61.60;42.93;;;;;;;-2.24;100.00;102225.19;4957605;28;20718;-81
2023/03/02 06:53:34;;;;;;;63.17;43.50;;;;;;;-2.23;100.00;102218.88;4956829;28;20132;-80
2023/03/02 06:55:59;;;;;;;61.83;42.67;;;;;;;-2.22;100.00;102220.59;4940992;28;20461;-81
2023/03/02 06:58:25;;;;;;;60.80;42.37;;;;;;;-2.17;100.00;102231.81;4939606;28;20042;-81
2023/03/02 07:00:50;;;;;;;57.37;41.43;;;;;;;-2.11;100.00;102230.56;4956759;28;20141;-80
2023/03/02 07:03:16;;;;;;;59.97;41.80;;;;;;;-2.08;100.00;102236.56;4956750;28;20125;-81
2023/03/02 07:05:42;;;;;;;56.90;41.07;;;;;;;-2.06;100.00;102239.94;4976979;28;20046;-81
2023/03/02 07:08:08;;;;;;;57.57;40.83;;;;;;;-2.02;100.00;102243.28;4974825;28;20309;-81
2023/03/02 07:10:33;;;;;;;58.03;40.23;;;;;;;-1.97;100.00;102243.84;4976942;28;20030;-81
2023/03/02 07:12:58;;;;;;;53.43;39.57;;;;;;;-1.91;100.00;102238.16;4945519;28;20808;-81
2023/03/02 07:15:24;;;;;;;55.57;38.43;;;;;;;-1.84;100.00;102243.94;4944105;28;20034;-89
2023/03/02 07:17:49;;;;;;;55.60;39.60;;;;;;;-1.77;100.00;102239.97;4985341;28;20450;-89
2023/03/02 07:20:17;;;;;;;56.87;39.60;;;;;;;-1.75;100.00;102246.03;4984133;28;20164;-89
2023/03/02 07:22:42;;;;;;;55.57;40.00;;;;;;;-1.67;100.00;102245.53;4984797;28;20035;-89
2023/03/02 07:25:09;;;;;;;52.90;38.30;;;;;;;-1.60;100.00;102235.38;4970650;28;20384;-89
2023/03/02 07:27:35;;;;;;;54.37;38.63;;;;;;;-1.52;100.00;102241.06;4984309;28;20031;-89
2023/03/02 07:30:01;;;;;;;54.73;38.20;;;;;;;-1.45;100.00;102239.69;4983732;28;20356;-88
2023/03/02 07:32:27;;;;;;;53.60;37.73;;;;;;;-1.36;100.00;102238.25;4984623;28;20038;-89
2023/03/02 07:34:52;;;;;;;51.53;37.23;;;;;;;-1.27;100.00;102242.97;4948063;28;21290;-89
2023/03/02 07:37:17;;;;;;;53.37;36.43;;;;;;;-1.16;100.00;102238.75;4970117;28;20042;-89
2023/03/02 07:39:43;;;;;;;53.03;37.17;;;;;;;-1.08;100.00;102233.78;4948006;28;20133;-89
2023/03/02 07:42:11;;;;;;;49.87;36.90;;;;;;;-0.96;100.00;102235.63;4967686;28;20172;-89
2023/03/02 07:44:36;;;;;;;50.27;35.67;;;;;;;-0.88;100.00;102243.97;4983031;28;20066;-89
2023/03/02 07:47:02;;;;;;;49.20;35.37;;;;;;;-0.75;100.00;102244.00;4981941;28;20736;-88
2023/03/02 07:49:28;;;;;;;49.17;35.63;;;;;;;-0.70;100.00;102244.53;4984659;28;20089;-88
2023/03/02 07:51:53;;;;;;;47.63;33.67;;;;;;;-0.63;100.00;102242.31;4979307;28;20047;-89
2023/03/02 07:54:18;;;;;;;49.27;34.30;;;;;;;-0.51;100.00;102257.44;4964687;28;20434;-89
2023/03/02 07:56:44;;;;;;;46.67;33.83;;;;;;;-0.36;100.00;102249.38;4982884;28;20049;-89
2023/03/02 07:59:11;;;;;;;44.87;32.47;;;;;;;-0.10;100.00;102249.38;4965622;28;20042;-88
2023/03/02 08:01:36;;;;;;;44.60;32.03;;;;;;;0.15;100.00;102249.34;4980564;28;20041;-81
2023/03/02 08:04:02;;;;;;;44.60;32.43;;;;;;;0.48;100.00;102249.72;4975601;28;20294;-81
2023/03/02 08:06:27;;;;;;;40.40;29.97;;;;;;;0.72;100.00;102252.41;4959476;28;20536;-81
2023/03/02 08:08:52;;;;;;;40.47;29.63;;;;;;;0.99;100.00;102246.84;4942699;28;20038;-81
2023/03/02 08:11:18;;;;;;;40.30;29.27;;;;;;;1.08;100.00;102249.81;4944672;28;20042;-81
2023/03/02 08:13:44;;;;;;;39.37;28.70;;;;;;;1.40;100.00;102243.81;4942740;28;20996;-81
2023/03/02 08:16:12;;;;;;;37.57;27.60;;;;;;;1.63;100.00;102236.72;4976609;28;20946;-81
2023/03/02 08:18:37;;;;;;;38.43;28.10;;;;;;;1.90;100.00;102238.22;4977269;28;20304;-81
2023/03/02 08:21:04;;;;;;;37.70;27.30;;;;;;;2.27;100.00;102238.81;4974734;28;20038;-81
2023/03/02 08:23:29;;;;;;;35.43;25.80;;;;;;;2.48;97.52;102238.91;4963596;28;20039;-82
2023/03/02 08:25:54;;;;;;;36.17;26.50;;;;;;;2.74;95.19;102237.78;4941110;28;20078;-82
2023/03/02 08:28:21;;;;;;;35.17;25.27;;;;;;;2.97;93.35;102247.41;4976051;28;21927;-81
2023/03/02 08:30:57;;;;;;;36.07;25.07;;;;;;;3.40;92.65;102245.66;4976956;28;21219;-82
2023/03/02 08:33:24;;;;;;;33.73;24.53;;;;;;;3.29;87.91;102245.69;4975394;28;20089;-82
2023/03/02 08:35:58;;;;;;;33.80;24.70;;;;;;;3.26;87.66;102243.28;4975810;28;20042;-82
2023/03/02 08:38:24;;;;;;;31.98;23.23;;;;;;;3.59;85.13;102246.75;4976003;28;21845;-82
2023/03/02 08:40:51;;;;;;;32.17;22.17;;;;;;;3.80;84.77;102247.59;4975506;28;20042;-83
2023/03/02 08:43:17;;;;;;;31.23;22.77;;;;;;;3.90;84.54;102244.94;4976377;28;20042;-82
2023/03/02 08:45:42;;;;;;;31.47;22.30;;;;;;;4.10;82.70;102245.06;4976210;28;20097;-80
2023/03/02 08:48:07;;;;;;;29.53;21.90;;;;;;;4.25;81.22;102250.91;4940961;28;20509;-80
2023/03/02 08:50:33;;;;;;;29.83;22.17;;;;;;;4.64;81.09;102245.66;4977085;28;20048;-80
2023/03/02 08:52:58;;;;;;;28.63;20.73;;;;;;;4.69;77.15;102244.25;4956399;28;20046;-80
2023/03/02 08:55:23;;;;;;;29.00;21.80;;;;;;;4.74;78.33;102239.28;4976540;28;20082;-80
2023/03/02 08:57:49;;;;;;;28.77;20.83;;;;;;;5.03;75.70;102230.44;4956462;28;20398;-88
2023/03/02 09:00:15;;;;;;;26.67;20.43;;;;;;;5.23;76.36;102235.78;4984025;28;20106;-88
2023/03/02 09:02:41;;;;;;;29.00;21.20;;;;;;;5.43;74.24;102236.63;4955660;28;20038;-88
2023/03/02 09:05:07;;;;;;;26.93;19.93;;;;;;;5.71;71.78;102237.56;4985621;28;20054;-88
2023/03/02 09:07:32;;;;;;;26.43;19.77;;;;;;;6.04;73.40;102229.16;4969973;28;20054;-88
2023/03/02 09:09:58;;;;;;;26.03;18.57;;;;;;;5.96;70.45;102229.00;4983318;28;20039;-88
2023/03/02 09:12:23;;;;;;;26.10;19.53;;;;;;;6.35;72.13;102235.09;4969615;28;20038;-88
2023/03/02 09:14:49;;;;;;;25.60;18.30;;;;;;;6.39;68.39;102238.31;4986589;28;20117;-88
2023/03/02 09:17:16;;;;;;;26.30;18.47;;;;;;;6.37;67.56;102233.09;4988122;28;20046;-88
2023/03/02 09:19:41;;;;;;;26.20;18.93;;;;;;;6.49;68.57;102235.59;4981806;28;20388;-87
2023/03/02 09:22:07;;;;;;;23.27;17.23;;;;;;;6.82;66.47;102234.09;4979823;28;20073;-88
2023/03/02 09:24:34;;;;;;;23.37;17.10;;;;;;;6.53;64.87;102229.75;4973174;28;20038;-88
2023/03/02 09:27:00;;;;;;;23.77;17.20;;;;;;;6.71;65.51;102231.63;4968907;28;20042;-89
2023/03/02 09:29:25;;;;;;;24.37;16.87;;;;;;;6.61;64.47;102237.06;4984562;28;20042;-88
2023/03/02 09:31:50;;;;;;;22.03;15.77;;;;;;;6.64;61.86;102230.53;4986625;28;20054;-88
2023/03/02 09:34:16;;;;;;;22.20;16.20;;;;;;;6.46;62.56;102236.75;4982577;28;20478;-89
2023/03/02 09:36:41;;;;;;;22.40;16.00;;;;;;;6.49;62.88;102225.66;4968396;28;20042;-88
2023/03/02 09:39:11;;;;;;;23.00;15.67;;;;;;;6.75;62.67;102224.94;4984361;28;20038;-88
2023/03/02 09:41:42;;;;;;;22.07;15.63;;;;;;;6.64;61.21;102225.16;4982253;28;20042;-89
2023/03/02 09:44:28;;;;;;;24.13;17.03;;;;;;;6.79;62.25;102230.88;4985000;28;20072;-88
2023/03/02 09:47:23;;;;;;;22.73;16.33;;;;;;;6.71;64.53;102231.63;4977589;28;20085;-88
2023/03/02 09:50:22;;;;;;;21.05;15.38;;;;;;;6.59;65.25;102231.84;4885513;28;20053;-88
2023/03/02 09:53:04;;;;;;;23.07;16.10;;;;;;;6.73;61.34;102226.91;4963809;28;20034;-88
2023/03/02 09:55:34;;;;;;;24.00;15.97;;;;;;;6.41;63.79;102231.78;4962387;28;20134;-82
2023/03/02 09:58:05;;;;;;;21.53;15.57;;;;;;;7.19;63.46;102230.38;4957963;28;20047;-81
2023/03/02 10:00:35;;;;;;;21.57;15.77;;;;;;;6.61;62.29;102225.44;4959158;28;20035;-82
2023/03/02 10:03:21;;;;;;;21.07;14.73;;;;;;;6.90;63.05;102226.09;4960428;28;20039;-81
2023/03/02 10:05:52;;;;;;;21.27;14.37;;;;;;;7.25;60.21;102224.38;4958491;28;20042;-82
2023/03/02 10:08:27;;;;;;;21.33;14.47;;;;;;;7.32;60.01;102229.16;4957445;28;20169;-81
2023/03/02 10:11:04;;;;;;;23.03;15.00;;;;;;;7.66;58.79;102233.78;4959843;28;20483;-89
2023/03/02 10:13:45;;;;;;;20.73;14.40;;;;;;;7.62;60.44;102227.03;4963528;28;20510;-88
2023/03/02 10:16:47;;;;;;;19.13;13.63;;;;;;;8.22;58.22;102236.97;4962725;28;20065;-88
2023/03/02 10:19:40;;;;;;;19.37;13.37;;;;;;;8.31;57.23;102222.50;4950098;28;20042;-88
2023/03/02 10:22:23;;;;;;;17.90;12.57;;;;;;;8.38;55.17;102228.09;4964253;28;20047;-88
2023/03/02 10:25:01;;;;;;;17.70;12.27;;;;;;;8.16;54.18;102221.41;4962791;28;20601;-88
2023/03/02 10:27:37;;;;;;;17.57;11.80;;;;;;;8.53;54.06;102239.97;4960793;28;20118;-89
2023/03/02 10:30:29;;;;;;;18.70;12.83;;;;;;;8.39;52.93;102233.31;4961831;28;20038;-88
2023/03/02 10:33:00;;;;;;;17.77;12.73;;;;;;;8.45;51.73;102232.69;4964242;28;20036;-90
2023/03/02 10:35:27;;;;;;;18.30;12.33;;;;;;;8.41;51.02;102236.69;4962011;28;20068;-91
2023/03/02 10:37:59;;;;;;;18.53;12.93;;;;;;;8.53;52.11;102231.03;4965648;28;20039;-91
2023/03/02 10:40:44;;;;;;;19.03;12.77;;;;;;;8.47;51.91;102229.81;4943984;28;20035;-91
2023/03/02 10:43:19;;;;;;;17.80;12.43;;;;;;;8.27;52.60;102230.06;4948234;28;20078;-91
2023/03/02 10:45:45;;;;;;;17.97;12.77;;;;;;;8.53;53.19;102215.66;4964199;28;20934;-83
2023/03/02 10:48:13;;;;;;;19.77;13.23;;;;;;;8.22;52.02;102221.59;4948168;28;20047;-83
2023/03/02 10:50:38;;;;;;;19.57;13.40;;;;;;;8.38;53.10;102211.88;4986223;28;20046;-83
2023/03/02 10:53:16;;;;;;;32.17;14.50;;;;;;;8.50;55.02;102207.91;4981692;28;20117;-83
2023/03/02 10:55:47;;;;;;;19.57;13.83;;;;;;;8.48;53.46;102204.50;4982141;28;20034;-83
2023/03/02 10:58:32;;;;;;;20.00;13.37;;;;;;;8.69;51.97;102214.00;4985325;28;20474;-83
2023/03/02 11:01:03;;;;;;;21.07;14.00;;;;;;;8.82;51.41;102210.84;4981280;28;20558;-83
2023/03/02 11:03:30;;;;;;;20.47;13.10;;;;;;;8.92;50.02;102204.25;4983118;28;20034;-83
2023/03/02 11:05:57;;;;;;;18.47;12.50;;;;;;;9.00;49.30;102210.69;4968146;28;20050;-83
2023/03/02 11:08:26;;;;;;;18.03;13.20;;;;;;;8.90;48.86;102213.53;4983619;28;21825;-82
2023/03/02 11:10:58;;;;;;;19.67;12.63;;;;;;;9.32;50.10;102209.00;4976515;28;20027;-90
2023/03/02 11:13:33;;;;;;;17.27;11.90;;;;;;;9.35;49.27;102204.06;4967542;28;20089;-90
2023/03/02 11:16:29;;;;;;;17.47;12.43;;;;;;;9.97;50.05;102199.91;4981946;28;20398;-83